createdAt,value
2023-05-10T00:01:16.079Z,21.10
2023-05-10T00:04:38.324Z,21.10
2023-05-10T00:08:00.770Z,21.10
2023-05-10T00:11:23.232Z,21.10
2023-05-10T00:14:46.116Z,21.00
2023-05-10T00:18:08.626Z,21.10
2023-05-10T00:21:30.985Z,21.00
2023-05-10T00:24:53.313Z,21.00
2023-05-10T00:28:15.580Z,21.10
2023-05-10T00:31:37.889Z,21.00
2023-05-10T00:35:00.215Z,21.00
2023-05-10T00:38:22.889Z,21.00
2023-05-10T00:41:45.056Z,21.00
2023-05-10T00:45:08.277Z,21.10
2023-05-10T00:48:31.486Z,21.00
2023-05-10T00:51:54.155Z,21.00
2023-05-10T00:55:16.592Z,21.00
2023-05-10T00:58:39.398Z,21.00
2023-05-10T01:02:02.127Z,21.00
2023-05-10T01:05:26.130Z,21.00
2023-05-10T01:08:48.714Z,21.00
2023-05-10T01:12:11.115Z,20.90
2023-05-10T01:15:34.073Z,21.00
2023-05-10T01:18:56.583Z,20.90
2023-05-10T01:22:37.504Z,20.90
2023-05-10T01:26:23.254Z,20.90
2023-05-10T01:29:45.361Z,20.90
2023-05-10T01:33:46.331Z,20.90
2023-05-10T01:37:17.792Z,21.00
2023-05-10T01:40:55.054Z,20.90
2023-05-10T01:44:38.655Z,20.90
2023-05-10T01:48:11.958Z,20.90
2023-05-10T01:51:47.668Z,20.90
2023-05-10T01:55:15.660Z,20.90
2023-05-10T01:58:40.928Z,20.80
2023-05-10T02:02:05.047Z,20.90
2023-05-10T02:05:30.115Z,20.80
2023-05-10T02:08:53.238Z,20.90
2023-05-10T02:12:17.035Z,20.80
2023-05-10T02:15:41.116Z,20.80
2023-05-10T02:19:04.243Z,20.80
2023-05-10T02:22:28.633Z,20.90
2023-05-10T02:25:54.939Z,20.80
2023-05-10T02:29:18.808Z,20.80
2023-05-10T02:32:42.037Z,20.80
2023-05-10T02:36:05.104Z,20.80
2023-05-10T02:39:29.667Z,20.80
2023-05-10T02:42:55.560Z,20.70
2023-05-10T02:46:17.958Z,20.80
2023-05-10T02:49:40.414Z,20.80
2023-05-10T02:53:10.618Z,20.70
2023-05-10T02:56:41.694Z,20.80
2023-05-10T03:00:04.729Z,20.70
2023-05-10T03:03:27.246Z,20.70
2023-05-10T03:06:49.494Z,20.80
2023-05-10T03:10:12.276Z,20.70
2023-05-10T03:13:56.401Z,20.70
2023-05-10T03:17:26.726Z,20.70
2023-05-10T03:20:51.870Z,20.70
2023-05-10T03:24:16.664Z,20.80
2023-05-10T03:27:44.333Z,20.70
2023-05-10T03:31:07.312Z,20.70
2023-05-10T03:34:32.482Z,20.70
2023-05-10T03:37:55.036Z,20.70
2023-05-10T03:41:17.386Z,20.70
2023-05-10T03:44:40.830Z,20.70
2023-05-10T03:48:03.047Z,20.70
2023-05-10T03:51:29.048Z,20.70
2023-05-10T03:54:51.363Z,20.60
2023-05-10T03:58:14.037Z,20.70
2023-05-10T04:01:36.601Z,20.70
2023-05-10T04:04:59.108Z,20.60
2023-05-10T04:08:21.315Z,20.60
2023-05-10T04:11:44.059Z,20.60
2023-05-10T04:15:07.507Z,20.70
2023-05-10T04:18:29.901Z,20.70
2023-05-10T04:21:52.196Z,20.60
2023-05-10T04:25:14.582Z,20.60
2023-05-10T04:28:36.863Z,20.60
2023-05-10T04:31:59.076Z,20.60
2023-05-10T04:35:21.233Z,20.70
2023-05-10T04:38:43.720Z,20.60
2023-05-10T04:42:06.724Z,20.60
2023-05-10T04:45:29.023Z,20.60
2023-05-10T04:48:51.467Z,20.60
2023-05-10T04:52:13.726Z,20.60
2023-05-10T04:55:36.571Z,20.60
2023-05-10T04:58:58.866Z,20.50
2023-05-10T05:02:21.328Z,20.60
2023-05-10T05:05:44.419Z,20.50
2023-05-10T05:09:06.666Z,20.60
2023-05-10T05:12:28.964Z,20.60
2023-05-10T05:15:51.265Z,20.60
2023-05-10T05:19:13.616Z,20.60
2023-05-10T05:22:37.850Z,20.60
2023-05-10T05:26:00.139Z,20.60
2023-05-10T05:29:22.473Z,20.60
2023-05-10T05:32:44.773Z,20.60
2023-05-10T05:36:07.464Z,20.60
2023-05-10T05:39:29.780Z,20.60
2023-05-10T05:42:52.128Z,20.60
2023-05-10T05:46:14.341Z,20.60
2023-05-10T05:49:36.576Z,20.70
2023-05-10T05:52:58.856Z,20.70
2023-05-10T05:56:25.186Z,20.70
2023-05-10T05:59:47.673Z,20.80
2023-05-10T06:03:09.989Z,20.80
2023-05-10T06:06:33.249Z,20.90
2023-05-10T06:09:55.601Z,20.90
2023-05-10T06:13:18.154Z,20.90
2023-05-10T06:16:40.524Z,20.90
2023-05-10T06:20:02.899Z,20.90
2023-05-10T06:23:26.450Z,21.00
2023-05-10T06:26:50.686Z,21.00
2023-05-10T06:30:14.397Z,21.00
2023-05-10T06:33:36.768Z,21.00
2023-05-10T06:36:59.188Z,21.10
2023-05-10T06:40:21.708Z,21.20
2023-05-10T06:43:44.360Z,21.20
2023-05-10T06:47:06.740Z,21.20
2023-05-10T06:50:29.105Z,21.20
2023-05-10T06:53:51.433Z,21.10
2023-05-10T06:57:27.680Z,21.20
2023-05-10T07:00:54.020Z,21.10
2023-05-10T07:04:16.335Z,21.10
2023-05-10T07:07:38.764Z,21.20
2023-05-10T07:11:05.413Z,21.20
2023-05-10T07:14:27.675Z,21.20
2023-05-10T07:17:49.986Z,21.20
2023-05-10T07:21:12.432Z,21.20
2023-05-10T07:24:35.048Z,21.20
2023-05-10T07:27:57.294Z,21.20
2023-05-10T07:31:19.609Z,21.20
2023-05-10T07:34:42.374Z,21.20
2023-05-10T07:38:04.688Z,21.20
2023-05-10T07:41:27.033Z,21.20
2023-05-10T07:44:49.470Z,21.20
2023-05-10T07:48:11.664Z,21.10
2023-05-10T07:51:33.946Z,21.10
2023-05-10T07:54:57.853Z,21.20
2023-05-10T07:58:20.116Z,21.20
2023-05-10T08:01:43.981Z,21.10
2023-05-10T08:05:06.673Z,21.10
2023-05-10T08:08:28.895Z,21.10
2023-05-10T08:11:51.677Z,21.10
2023-05-10T08:15:13.934Z,21.10
2023-05-10T08:18:36.231Z,21.10
2023-05-10T08:21:58.729Z,21.10
2023-05-10T08:25:20.915Z,21.00
2023-05-10T08:28:43.152Z,21.00
2023-05-10T08:32:05.862Z,21.00
2023-05-10T08:35:28.245Z,21.10
2023-05-10T08:38:53.011Z,21.00
2023-05-10T08:42:21.714Z,21.00
2023-05-10T08:45:48.676Z,21.00
2023-05-10T08:49:17.538Z,21.00
2023-05-10T08:52:41.588Z,21.10
2023-05-10T08:56:04.775Z,21.10
2023-05-10T08:59:27.677Z,21.10
2023-05-10T09:02:51.277Z,21.10
2023-05-10T09:06:14.332Z,21.20
2023-05-10T09:09:37.718Z,21.10
2023-05-10T09:13:00.310Z,21.10
2023-05-10T09:16:23.323Z,21.00
2023-05-10T09:19:46.416Z,21.00
2023-05-10T09:23:08.846Z,21.00
2023-05-10T09:26:31.477Z,21.00
2023-05-10T09:29:56.072Z,21.00
2023-05-10T09:33:19.209Z,21.00
2023-05-10T09:36:52.473Z,21.00
2023-05-10T09:40:17.086Z,21.00
2023-05-10T09:43:39.510Z,21.00
2023-05-10T09:47:02.642Z,21.00
2023-05-10T09:50:25.111Z,21.10
2023-05-10T09:53:47.465Z,21.10
2023-05-10T09:57:22.123Z,21.20
2023-05-10T10:00:45.935Z,21.20
2023-05-10T10:04:10.134Z,21.20
2023-05-10T10:07:33.061Z,21.20
2023-05-10T10:10:55.434Z,21.20
2023-05-10T10:14:19.808Z,21.20
2023-05-10T10:17:43.426Z,21.20
2023-05-10T10:21:09.190Z,21.30
2023-05-10T10:24:31.751Z,21.30
2023-05-10T10:27:53.992Z,21.40
2023-05-10T10:31:59.682Z,21.40
2023-05-10T10:35:22.527Z,21.50
2023-05-10T10:38:47.514Z,21.50
2023-05-10T10:42:09.816Z,21.50
2023-05-10T10:45:32.026Z,21.50
2023-05-10T10:49:10.926Z,21.60
2023-05-10T10:52:37.231Z,21.60
2023-05-10T10:56:14.555Z,21.60
2023-05-10T10:59:37.478Z,21.60
2023-05-10T11:03:00.772Z,21.50
2023-05-10T11:06:37.727Z,21.50
2023-05-10T11:10:06.206Z,21.50
2023-05-10T11:13:31.497Z,21.50
2023-05-10T11:16:53.916Z,21.50
2023-05-10T11:20:16.764Z,21.40
2023-05-10T11:23:48.165Z,21.40
2023-05-10T11:27:12.186Z,21.40
2023-05-10T11:30:34.410Z,21.40
2023-05-10T11:34:02.641Z,21.30
2023-05-10T11:37:24.892Z,21.30
2023-05-10T11:40:47.351Z,21.20
2023-05-10T11:44:10.493Z,21.30
2023-05-10T11:47:32.975Z,21.20
2023-05-10T11:50:58.045Z,21.20
2023-05-10T11:54:20.337Z,21.20
2023-05-10T11:57:44.742Z,21.20
2023-05-10T12:01:08.746Z,21.20
2023-05-10T12:04:31.334Z,21.20
2023-05-10T12:07:53.765Z,21.20
2023-05-10T12:11:16.706Z,21.20
2023-05-10T12:14:39.134Z,21.10
2023-05-10T12:18:02.275Z,21.20
2023-05-10T12:21:25.425Z,21.20
2023-05-10T12:24:47.630Z,21.10
2023-05-10T12:28:10.956Z,21.10
2023-05-10T12:31:33.263Z,21.10
2023-05-10T12:34:55.567Z,21.10
2023-05-10T12:38:33.426Z,21.10
2023-05-10T12:41:55.805Z,21.10
2023-05-10T12:45:19.289Z,21.10
2023-05-10T12:48:43.105Z,21.10
2023-05-10T12:52:05.444Z,21.10
2023-05-10T12:55:27.695Z,21.10
2023-05-10T12:58:49.934Z,21.10
2023-05-10T13:02:12.238Z,21.10
2023-05-10T13:05:34.716Z,21.10
2023-05-10T13:08:58.524Z,21.20
2023-05-10T13:12:20.855Z,21.20
2023-05-10T13:15:43.131Z,21.20
2023-05-10T13:19:05.544Z,21.20
2023-05-10T13:22:39.214Z,21.20
2023-05-10T13:26:02.438Z,21.20
2023-05-10T13:29:24.666Z,21.30
2023-05-10T13:32:46.969Z,21.20
2023-05-10T13:36:09.344Z,21.20
2023-05-10T13:39:35.325Z,21.20
2023-05-10T13:42:57.551Z,21.10
2023-05-10T13:46:20.368Z,21.10
2023-05-10T13:49:42.726Z,21.10
2023-05-10T13:53:04.956Z,21.00
2023-05-10T13:56:27.427Z,21.00
2023-05-10T13:59:49.925Z,21.00
2023-05-10T14:03:12.625Z,21.00
2023-05-10T14:06:35.147Z,21.00
2023-05-10T14:09:57.370Z,21.00
2023-05-10T14:13:19.571Z,21.00
2023-05-10T14:16:46.024Z,21.00
2023-05-10T14:20:09.361Z,21.00
2023-05-10T14:23:31.833Z,21.00
2023-05-10T14:26:54.955Z,21.00
2023-05-10T14:30:17.332Z,21.00
2023-05-10T14:33:39.534Z,21.00
2023-05-10T14:37:02.186Z,21.00
2023-05-10T14:40:24.462Z,21.00
2023-05-10T14:43:47.009Z,21.10
2023-05-10T14:47:11.169Z,21.00
2023-05-10T14:50:36.968Z,21.00
2023-05-10T14:53:59.997Z,20.90
2023-05-10T14:57:22.449Z,21.00
2023-05-10T15:00:44.698Z,21.00
2023-05-10T15:04:07.433Z,21.00
2023-05-10T15:07:30.348Z,20.90
2023-05-10T15:10:53.050Z,21.00
2023-05-10T15:14:15.383Z,20.90
2023-05-10T15:17:37.756Z,21.00
2023-05-10T15:20:59.992Z,20.90
2023-05-10T15:24:22.793Z,21.00
2023-05-10T15:27:45.020Z,21.00
2023-05-10T15:31:07.283Z,21.00
2023-05-10T15:34:31.964Z,20.90
2023-05-10T15:37:55.421Z,21.00
2023-05-10T15:41:18.008Z,20.90
2023-05-10T15:44:40.237Z,20.90
2023-05-10T15:48:02.541Z,21.00
2023-05-10T15:51:24.825Z,21.00
2023-05-10T15:54:47.225Z,21.00
2023-05-10T15:58:09.488Z,21.00
2023-05-10T16:01:32.822Z,21.00
2023-05-10T16:04:55.095Z,21.00
2023-05-10T16:08:17.492Z,21.00
2023-05-10T16:11:40.031Z,21.00
2023-05-10T16:15:02.558Z,21.00
2023-05-10T16:18:25.080Z,21.00
2023-05-10T16:21:47.933Z,20.90
2023-05-10T16:25:13.340Z,21.00
2023-05-10T16:28:36.174Z,21.00
2023-05-10T16:31:58.398Z,21.00
2023-05-10T16:35:20.806Z,21.00
2023-05-10T16:38:43.071Z,21.00
2023-05-10T16:42:05.612Z,21.00
2023-05-10T16:45:27.822Z,21.00
2023-05-10T16:48:50.101Z,20.90
2023-05-10T16:52:12.479Z,21.00
2023-05-10T16:55:34.758Z,21.00
2023-05-10T16:58:56.996Z,21.00
2023-05-10T17:02:20.032Z,21.00
2023-05-10T17:05:43.141Z,21.00
2023-05-10T17:09:05.850Z,21.00
2023-05-10T17:12:28.216Z,21.10
2023-05-10T17:15:50.606Z,21.10
2023-05-10T17:19:12.870Z,21.10
2023-05-10T17:22:35.241Z,21.10
2023-05-10T17:25:59.034Z,21.00
2023-05-10T17:29:23.559Z,21.10
2023-05-10T17:32:45.944Z,21.00
2023-05-10T17:36:08.320Z,21.00
2023-05-10T17:39:30.651Z,20.90
2023-05-10T17:42:52.895Z,20.80
2023-05-10T17:46:15.466Z,20.70
2023-05-10T17:49:37.765Z,20.80
2023-05-10T17:53:00.143Z,20.80
2023-05-10T17:56:22.588Z,20.70
2023-05-10T17:59:44.847Z,20.70
2023-05-10T18:03:07.254Z,20.80
2023-05-10T18:06:29.520Z,20.70
2023-05-10T18:09:51.770Z,20.70
2023-05-10T18:13:14.034Z,20.70
2023-05-10T18:16:36.383Z,20.70
2023-05-10T18:19:58.680Z,20.80
2023-05-10T18:23:20.999Z,20.90
2023-05-10T18:26:44.363Z,20.90
2023-05-10T18:30:09.628Z,20.90
2023-05-10T18:33:31.951Z,21.00
2023-05-10T18:36:54.281Z,21.00
2023-05-10T18:40:17.861Z,21.10
2023-05-10T18:43:41.363Z,21.10
2023-05-10T18:47:03.691Z,21.10
2023-05-10T18:50:25.971Z,21.20
2023-05-10T18:53:48.823Z,21.20
2023-05-10T18:57:12.382Z,21.20
2023-05-10T19:00:34.631Z,21.10
2023-05-10T19:03:56.861Z,20.90
2023-05-10T19:07:19.165Z,20.90
2023-05-10T19:10:41.440Z,20.90
2023-05-10T19:14:05.737Z,20.80
2023-05-10T19:17:30.368Z,20.80
2023-05-10T19:20:56.373Z,20.80
2023-05-10T19:24:19.687Z,20.80
2023-05-10T19:27:42.162Z,20.80
2023-05-10T19:31:04.545Z,20.80
2023-05-10T19:34:27.309Z,20.80
2023-05-10T19:37:50.973Z,20.70
2023-05-10T19:41:13.222Z,20.70
2023-05-10T19:44:35.505Z,20.70
2023-05-10T19:47:58.100Z,20.80
2023-05-10T19:51:20.521Z,20.90
2023-05-10T19:54:44.132Z,20.90
2023-05-10T19:58:06.570Z,21.00
2023-05-10T20:01:29.070Z,21.00
2023-05-10T20:04:51.371Z,21.00
2023-05-10T20:08:13.722Z,21.00
2023-05-10T20:11:36.063Z,21.00
2023-05-10T20:14:58.609Z,21.10
2023-05-10T20:18:20.976Z,21.10
2023-05-10T20:21:43.256Z,21.10
2023-05-10T20:25:06.135Z,21.10
2023-05-10T20:28:28.952Z,21.10
2023-05-10T20:31:51.343Z,21.10
2023-05-10T20:35:13.759Z,21.10
2023-05-10T20:38:36.804Z,21.10
2023-05-10T20:42:00.274Z,21.10
2023-05-10T20:45:22.501Z,21.10
2023-05-10T20:48:44.771Z,21.10
2023-05-10T20:52:07.315Z,21.10
2023-05-10T20:55:29.687Z,21.00
2023-05-10T20:58:52.003Z,21.00
2023-05-10T21:02:14.257Z,20.90
2023-05-10T21:05:36.942Z,21.00
2023-05-10T21:08:59.346Z,21.00
2023-05-10T21:12:21.628Z,21.00
2023-05-10T21:15:43.857Z,21.00
2023-05-10T21:19:07.508Z,21.10
2023-05-10T21:22:30.026Z,21.00
2023-05-10T21:25:52.495Z,21.00
2023-05-10T21:29:14.989Z,21.00
2023-05-10T21:32:37.416Z,21.00
2023-05-10T21:35:59.804Z,21.00
2023-05-10T21:39:22.133Z,21.00
2023-05-10T21:42:49.236Z,21.00
2023-05-10T21:46:13.393Z,21.00
2023-05-10T21:49:35.940Z,21.00
2023-05-10T21:52:58.195Z,20.90
2023-05-10T21:56:20.633Z,20.90
2023-05-10T21:59:42.914Z,20.90
2023-05-10T22:03:05.198Z,20.90
2023-05-10T22:06:27.566Z,21.00
2023-05-10T22:09:49.895Z,20.90
2023-05-10T22:13:12.141Z,20.90
2023-05-10T22:16:34.569Z,20.90
2023-05-10T22:19:56.866Z,20.90
2023-05-10T22:23:19.149Z,20.90
2023-05-10T22:26:41.451Z,20.90
2023-05-10T22:30:04.781Z,20.90
2023-05-10T22:33:27.039Z,20.90
2023-05-10T22:36:50.419Z,20.90
2023-05-10T22:40:12.930Z,20.90
2023-05-10T22:43:35.160Z,20.90
2023-05-10T22:46:57.471Z,20.90
2023-05-10T22:50:20.882Z,20.90
2023-05-10T22:53:43.403Z,20.90
2023-05-10T22:57:06.046Z,20.90
2023-05-10T23:00:28.322Z,20.80
2023-05-10T23:03:50.880Z,20.80
2023-05-10T23:07:13.140Z,20.90
2023-05-10T23:10:37.513Z,20.80
2023-05-10T23:13:59.942Z,20.80
2023-05-10T23:17:22.397Z,20.80
2023-05-10T23:20:44.742Z,20.80
2023-05-10T23:24:08.518Z,20.80
2023-05-10T23:27:31.197Z,20.80
2023-05-10T23:30:57.505Z,20.80
2023-05-10T23:34:19.796Z,20.80
2023-05-10T23:37:42.610Z,20.80
2023-05-10T23:41:04.987Z,20.90
2023-05-10T23:44:27.204Z,20.80
2023-05-10T23:47:49.539Z,20.80
2023-05-10T23:51:11.754Z,20.80
2023-05-10T23:54:34.167Z,20.80
2023-05-10T23:57:57.084Z,20.80
